Time;durP1;ratioP1;P1;durP2;ratioP2;P2;SDS_P1;SDS_P2;PMS_P1;PMS_P2;Temp;Humidity;BMP_temperature;BMP_pressure;BME280_temperature;BME280_humidity;BME280_pressure;Samples;Min_cycle;Max_cycle;Signal;HPM_P1;HPM_P2
2023/08/04 00:00:57;;;;;;;12.20;11.10;;;;;;;26.29;66.26;94464.34;5072444;28;20445;-76
2023/08/04 00:03:24;;;;;;;13.47;12.37;;;;;;;26.21;66.01;94462.84;5072679;28;20445;-77
2023/08/04 00:05:50;;;;;;;14.53;13.10;;;;;;;26.19;65.90;94467.66;5037022;28;20440;-77
2023/08/04 00:08:17;;;;;;;12.40;11.20;;;;;;;26.18;65.87;94467.91;5072482;28;20437;-77
2023/08/04 00:10:44;;;;;;;12.10;11.00;;;;;;;26.16;65.94;94472.69;5072511;28;20466;-77
2023/08/04 00:13:11;;;;;;;12.53;11.33;;;;;;;26.14;65.71;94461.34;5072525;28;20448;-77
2023/08/04 00:15:38;;;;;;;12.83;11.83;;;;;;;26.15;65.96;94473.75;5072705;28;20444;-77
2023/08/04 00:18:06;;;;;;;13.63;11.60;;;;;;;26.14;66.08;94469.44;5036660;28;20472;-76
2023/08/04 00:20:33;;;;;;;12.30;11.10;;;;;;;26.09;66.46;94466.63;5072101;28;20946;-77
2023/08/04 00:23:00;;;;;;;14.20;12.80;;;;;;;26.05;66.75;94476.22;5072219;28;20449;-77
2023/08/04 00:25:27;;;;;;;16.77;12.40;;;;;;;26.01;67.19;94472.34;5071921;28;20444;-77
2023/08/04 00:27:53;;;;;;;15.83;12.90;;;;;;;25.96;67.42;94473.06;5072022;28;20445;-77
2023/08/04 00:30:20;;;;;;;13.97;12.17;;;;;;;25.96;67.62;94472.25;5072067;28;20437;-76
2023/08/04 00:32:47;;;;;;;14.03;12.67;;;;;;;25.96;67.89;94473.06;5071881;28;20448;-77
2023/08/04 00:35:18;;;;;;;13.33;12.17;;;;;;;25.91;68.07;94478.34;5071892;28;20444;-77
2023/08/04 00:37:45;;;;;;;14.10;12.80;;;;;;;25.74;68.65;94464.78;5020246;28;20503;-77
2023/08/04 00:40:12;;;;;;;14.43;13.17;;;;;;;25.70;69.06;94476.22;5071755;28;20787;-77
2023/08/04 00:42:39;;;;;;;15.93;12.90;;;;;;;25.68;69.36;94471.09;5020093;28;20429;-77
2023/08/04 00:45:07;;;;;;;16.30;14.70;;;;;;;25.54;70.46;94475.03;5071992;28;20809;-76
2023/08/04 00:47:35;;;;;;;14.47;13.13;;;;;;;25.52;71.02;94471.75;5072165;28;20440;-76
2023/08/04 00:50:04;;;;;;;15.67;14.17;;;;;;;25.39;71.95;94477.34;5071884;28;20473;-77
2023/08/04 00:52:32;;;;;;;15.27;13.77;;;;;;;25.44;72.01;94474.78;5036561;28;20437;-77
2023/08/04 00:54:59;;;;;;;17.27;15.70;;;;;;;25.25;73.13;94477.56;5071627;28;20962;-77
2023/08/04 00:57:26;;;;;;;16.37;14.77;;;;;;;25.25;73.46;94476.75;5071758;28;20452;-77
2023/08/04 00:59:56;;;;;;;16.73;15.23;;;;;;;25.31;73.62;94476.63;5072456;28;20433;-77
2023/08/04 01:02:23;;;;;;;17.43;15.73;;;;;;;25.34;73.53;94480.72;5071967;28;20518;-76
2023/08/04 01:04:50;;;;;;;17.70;16.10;;;;;;;25.23;74.19;94468.91;5071825;28;20489;-77
2023/08/04 01:07:22;;;;;;;17.13;15.53;;;;;;;25.27;74.34;94469.28;5072005;28;20452;-77
2023/08/04 01:10:02;;;;;;;16.23;14.70;;;;;;;25.30;73.72;94477.69;5071560;28;20503;-76
2023/08/04 01:12:36;;;;;;;19.73;15.23;;;;;;;25.32;73.85;94472.06;5072073;28;20506;-77
2023/08/04 01:15:04;;;;;;;17.60;15.40;;;;;;;25.33;73.99;94479.09;5071779;28;20452;-77
2023/08/04 01:17:32;;;;;;;17.27;15.47;;;;;;;25.33;74.25;94468.34;5072063;28;20437;-77
2023/08/04 01:20:00;;;;;;;17.70;16.00;;;;;;;25.31;73.91;94465.88;5071584;28;20440;-77
2023/08/04 01:22:28;;;;;;;16.07;14.47;;;;;;;25.32;73.69;94469.38;5071675;28;20947;-77
2023/08/04 01:24:56;;;;;;;16.97;15.37;;;;;;;25.39;73.41;94467.41;5019682;28;20425;-77
2023/08/04 01:27:28;;;;;;;17.97;16.17;;;;;;;25.40;73.58;94465.53;5071522;28;20443;-77
2023/08/04 01:29:58;;;;;;;16.53;15.00;;;;;;;25.40;73.90;94469.03;5071554;28;20465;-77
2023/08/04 01:32:25;;;;;;;15.90;14.43;;;;;;;25.44;73.38;94467.53;5071570;28;20437;-77
2023/08/04 01:34:53;;;;;;;17.80;15.90;;;;;;;25.44;72.96;94469.41;5020590;28;20953;-77
2023/08/04 01:37:22;;;;;;;17.17;15.38;;;;;;;25.34;74.02;94467.28;5071347;28;20437;-77
2023/08/04 01:39:51;;;;;;;18.70;16.57;;;;;;;25.33;74.05;94479.09;5071950;28;20217;-77
2023/08/04 01:42:17;;;;;;;17.73;15.90;;;;;;;25.29;74.51;94472.53;5071626;28;20946;-76
2023/08/04 01:44:47;;;;;;;16.97;15.37;;;;;;;25.32;74.18;94472.91;5039174;28;20444;-77
2023/08/04 01:47:14;;;;;;;16.07;14.37;;;;;;;25.29;74.17;94481.41;5075651;28;20432;-77
2023/08/04 01:49:41;;;;;;;18.57;16.70;;;;;;;25.22;74.43;94486.09;5077398;28;20487;-76
2023/08/04 01:52:08;;;;;;;17.77;16.07;;;;;;;25.23;74.74;94490.41;5090653;28;20447;-76
2023/08/04 01:54:34;;;;;;;18.50;16.90;;;;;;;25.17;75.07;94494.00;5084239;28;20452;-77
2023/08/04 01:57:03;;;;;;;17.63;16.10;;;;;;;25.20;75.01;94479.31;5039969;28;20482;-77
2023/08/04 01:59:33;;;;;;;17.70;16.00;;;;;;;25.21;74.64;94484.44;5039444;28;20496;-77
2023/08/04 02:02:00;;;;;;;16.57;15.13;;;;;;;25.23;74.63;94487.72;5075105;28;20440;-77
2023/08/04 02:04:27;;;;;;;17.63;16.03;;;;;;;25.29;74.43;94496.72;5023407;28;20436;-77
2023/08/04 02:06:53;;;;;;;16.77;15.17;;;;;;;25.31;74.05;94492.75;5074894;28;20511;-76
2023/08/04 02:09:22;;;;;;;16.73;15.30;;;;;;;25.38;73.48;94494.50;5074643;28;20950;-77
2023/08/04 02:11:49;;;;;;;17.27;15.57;;;;;;;25.38;73.66;94494.50;5074699;28;20515;-76
2023/08/04 02:14:17;;;;;;;17.23;15.60;;;;;;;25.32;73.71;94494.38;5074579;28;20456;-76
2023/08/04 02:16:44;;;;;;;17.17;15.37;;;;;;;25.19;73.58;94488.41;5074849;28;20440;-77
2023/08/04 02:19:11;;;;;;;17.10;15.40;;;;;;;25.23;73.63;94500.31;5074476;28;20883;-77
2023/08/04 02:21:38;;;;;;;16.17;14.67;;;;;;;25.24;73.90;94496.59;5074676;28;20445;-77
2023/08/04 02:24:05;;;;;;;17.67;15.90;;;;;;;25.15;73.81;94504.13;5039343;28;20436;-76
2023/08/04 02:26:32;;;;;;;18.30;16.37;;;;;;;25.11;74.40;94508.34;5074341;28;20437;-77
2023/08/04 02:28:59;;;;;;;16.90;15.10;;;;;;;25.06;74.36;94505.53;5074397;28;20453;-77
2023/08/04 02:31:29;;;;;;;16.80;14.97;;;;;;;25.01;74.70;94510.75;5074615;28;20441;-77
2023/08/04 02:33:56;;;;;;;17.23;15.23;;;;;;;24.93;74.94;94516.44;5074402;28;20452;-76
2023/08/04 02:36:23;;;;;;;17.27;15.67;;;;;;;24.98;74.96;94519.25;5074629;28;20448;-76
2023/08/04 02:38:50;;;;;;;17.53;15.87;;;;;;;24.96;74.89;94516.78;5073742;28;20990;-76
2023/08/04 02:41:17;;;;;;;18.53;16.80;;;;;;;25.00;74.89;94525.25;5073833;28;20806;-76
2023/08/04 02:43:44;;;;;;;17.87;16.00;;;;;;;24.97;74.44;94523.78;5074438;28;20441;-77
2023/08/04 02:46:11;;;;;;;18.10;16.30;;;;;;;24.93;74.89;94525.31;5074110;28;20447;-77
2023/08/04 02:48:40;;;;;;;16.60;15.00;;;;;;;24.93;74.90;94521.81;5074409;28;20441;-76
2023/08/04 02:51:08;;;;;;;17.47;15.73;;;;;;;24.86;75.66;94521.03;5073919;28;20453;-76
2023/08/04 02:53:37;;;;;;;17.80;16.00;;;;;;;24.83;75.68;94518.81;5073972;28;20965;-76
2023/08/04 02:56:09;;;;;;;17.90;16.00;;;;;;;24.72;76.27;94523.09;5074201;28;20946;-76
2023/08/04 02:58:36;;;;;;;19.03;17.23;;;;;;;24.66;76.69;94521.31;5074017;28;20488;-77
2023/08/04 03:01:03;;;;;;;17.30;15.60;;;;;;;24.56;76.64;94521.84;5074156;28;20449;-76
2023/08/04 03:03:30;;;;;;;17.37;15.67;;;;;;;24.57;76.82;94533.38;5074159;28;20483;-76
2023/08/04 03:05:59;;;;;;;17.77;15.87;;;;;;;24.51;77.74;94529.75;5073598;28;20447;-76
2023/08/04 03:08:26;;;;;;;18.13;16.30;;;;;;;24.55;76.99;94530.94;5073259;28;20451;-77
2023/08/04 03:10:53;;;;;;;17.23;15.57;;;;;;;24.56;77.50;94526.38;5073258;28;20942;-76
2023/08/04 03:13:19;;;;;;;17.87;16.17;;;;;;;24.51;77.31;94524.38;5073969;28;20437;-80
2023/08/04 03:15:46;;;;;;;16.37;14.93;;;;;;;24.56;77.26;94521.84;5073787;28;20444;-76
2023/08/04 03:18:13;;;;;;;17.97;16.20;;;;;;;24.48;77.60;94524.03;5073129;28;20450;-76
2023/08/04 03:20:41;;;;;;;17.70;16.00;;;;;;;24.52;77.56;94526.03;5073396;28;20460;-76
2023/08/04 03:23:09;;;;;;;16.40;14.90;;;;;;;24.59;77.51;94524.09;5073148;28;20498;-76
2023/08/04 03:25:36;;;;;;;18.63;16.83;;;;;;;24.88;76.33;94522.50;5073485;28;21096;-76
2023/08/04 03:28:03;;;;;;;16.40;14.90;;;;;;;25.09;75.03;94523.03;5072964;28;20433;-75
2023/08/04 03:30:30;;;;;;;18.47;16.67;;;;;;;25.27;74.81;94523.81;5072819;28;20820;-75
2023/08/04 03:32:56;;;;;;;17.70;16.00;;;;;;;25.55;73.48;94523.16;5073014;28;20928;-75
2023/08/04 03:35:23;;;;;;;18.90;17.10;;;;;;;25.63;72.68;94522.81;5037373;28;20433;-75
2023/08/04 03:37:50;;;;;;;18.03;16.23;;;;;;;25.70;72.24;94521.91;5072744;28;20502;-76
2023/08/04 03:40:19;;;;;;;18.30;16.50;;;;;;;25.66;71.91;94529.59;5072763;28;20488;-76
2023/08/04 03:42:46;;;;;;;17.50;15.70;;;;;;;25.63;72.29;94519.31;5072829;28;20963;-76
2023/08/04 03:45:12;;;;;;;18.03;16.43;;;;;;;25.56;72.61;94521.28;5072660;28;20519;-75
2023/08/04 03:47:39;;;;;;;17.00;15.50;;;;;;;25.55;72.39;94519.66;5072517;28;20947;-76
2023/08/04 03:50:07;;;;;;;16.03;14.63;;;;;;;25.77;71.58;94515.41;5072909;28;20786;-76
2023/08/04 03:52:34;;;;;;;29.73;16.20;;;;;;;25.97;70.57;94528.47;5073013;28;20822;-77
2023/08/04 03:55:01;;;;;;;18.13;16.20;;;;;;;25.96;71.00;94526.84;5072560;28;20441;-77
2023/08/04 03:57:29;;;;;;;16.90;15.20;;;;;;;26.19;70.73;94531.41;5072924;28;20449;-77
2023/08/04 03:59:55;;;;;;;17.40;15.73;;;;;;;26.58;68.96;94526.31;5072453;28;20487;-75
2023/08/04 04:02:22;;;;;;;17.33;15.77;;;;;;;26.76;68.72;94531.56;5072083;28;20444;-74
2023/08/04 04:04:49;;;;;;;17.67;15.97;;;;;;;26.82;68.28;94522.50;5072174;28;20444;-75
2023/08/04 04:07:16;;;;;;;16.20;14.87;;;;;;;26.86;67.97;94520.97;5062876;28;20457;-74
2023/08/04 04:09:43;;;;;;;17.83;16.23;;;;;;;26.76;69.21;94528.88;5006927;28;20456;-79
2023/08/04 04:12:09;;;;;;;16.57;15.07;;;;;;;26.65;68.56;94524.34;5062779;28;20456;-79
2023/08/04 04:14:38;;;;;;;16.37;14.80;;;;;;;26.83;68.73;94535.75;5056057;28;20449;-80
2023/08/04 04:17:05;;;;;;;18.90;16.27;;;;;;;27.33;66.49;94527.00;5052523;28;20524;-79
2023/08/04 04:19:32;;;;;;;18.37;15.07;;;;;;;27.68;66.13;94534.09;5052569;28;20485;-79
2023/08/04 04:21:59;;;;;;;17.27;15.50;;;;;;;28.08;63.28;94536.63;5052811;28;20445;-74
2023/08/04 04:24:25;;;;;;;15.57;13.93;;;;;;;28.17;63.57;94535.16;5052108;28;20448;-76
2023/08/04 04:26:52;;;;;;;16.10;14.60;;;;;;;28.41;62.10;94532.28;5052247;28;20445;-76
2023/08/04 04:29:19;;;;;;;16.77;15.30;;;;;;;28.69;61.92;94542.91;5052218;28;20704;-76
2023/08/04 04:31:47;;;;;;;17.20;15.40;;;;;;;28.90;60.58;94539.41;5033195;28;20434;-75
2023/08/04 04:34:14;;;;;;;16.97;15.37;;;;;;;28.49;60.78;94539.94;5051919;28;20448;-77
2023/08/04 04:36:41;;;;;;;17.10;15.40;;;;;;;28.50;61.16;94530.78;5000152;28;20434;-77
2023/08/04 04:39:08;;;;;;;16.30;14.80;;;;;;;28.76;60.46;94534.59;5051676;28;20489;-76
2023/08/04 04:41:35;;;;;;;16.73;15.33;;;;;;;28.53;61.23;94541.06;5051962;28;20476;-77
2023/08/04 04:44:02;;;;;;;17.90;16.20;;;;;;;28.49;60.50;94545.34;5032863;28;20454;-74
2023/08/04 04:46:29;;;;;;;19.20;15.93;;;;;;;28.42;61.83;94547.41;5051686;28;20955;-74
2023/08/04 04:48:57;;;;;;;17.30;15.70;;;;;;;28.24;61.25;94543.06;5051031;28;20448;-74
2023/08/04 04:51:24;;;;;;;16.07;14.40;;;;;;;28.44;60.99;94542.56;5016199;28;20438;-76
2023/08/04 04:53:51;;;;;;;17.07;15.37;;;;;;;28.63;61.34;94542.03;5051239;28;20444;-74
2023/08/04 04:56:18;;;;;;;15.63;14.23;;;;;;;28.88;60.08;94546.13;5051073;28;20442;-74
2023/08/04 04:58:44;;;;;;;17.20;15.50;;;;;;;29.23;58.86;94548.44;5051364;28;20958;-74
2023/08/04 05:01:11;;;;;;;18.30;16.40;;;;;;;29.27;58.50;94552.25;5058241;28;20911;-74
2023/08/04 05:03:38;;;;;;;15.67;13.90;;;;;;;29.48;57.99;94554.09;5072231;28;20467;-74
2023/08/04 05:06:06;;;;;;;19.90;14.67;;;;;;;29.69;57.33;94548.91;5071748;28;20449;-74
2023/08/04 05:08:33;;;;;;;16.07;14.47;;;;;;;29.78;56.33;94558.16;5072101;28;20448;-74
2023/08/04 05:11:00;;;;;;;16.50;14.87;;;;;;;29.92;56.32;94554.78;5071965;28;20445;-74
2023/08/04 05:13:26;;;;;;;15.40;13.80;;;;;;;30.18;56.34;94553.13;5071940;28;20447;-74
2023/08/04 05:15:53;;;;;;;17.20;15.50;;;;;;;30.41;55.24;94551.09;5072069;28;20510;-74
2023/08/04 05:18:20;;;;;;;15.93;14.43;;;;;;;30.69;54.55;94558.06;5074139;28;20540;-74
2023/08/04 05:20:48;;;;;;;16.90;14.50;;;;;;;30.98;53.97;94566.59;5075914;28;20837;-74
2023/08/04 05:23:16;;;;;;;14.60;13.27;;;;;;;31.20;54.19;94558.28;5075905;28;20432;-74
2023/08/04 05:25:44;;;;;;;16.13;14.60;;;;;;;31.21;53.86;94566.16;5075754;28;20441;-74
2023/08/04 05:28:22;;;;;;;26.00;16.40;;;;;;;30.51;56.98;94562.00;5075938;28;20453;-74
2023/08/04 05:30:49;;;;;;;22.70;16.40;;;;;;;30.19;57.52;94553.94;5076160;28;20494;-74
2023/08/04 05:33:16;;;;;;;16.20;14.70;;;;;;;30.23;56.93;94549.63;5075773;28;20448;-74
2023/08/04 05:35:45;;;;;;;16.97;15.27;;;;;;;29.57;59.42;94558.00;5066570;28;20862;-74
2023/08/04 05:38:12;;;;;;;16.77;15.23;;;;;;;30.26;58.29;94548.28;5075395;28;20457;-74
2023/08/04 05:40:43;;;;;;;18.23;16.63;;;;;;;30.57;56.54;94550.09;5075879;28;20476;-75
2023/08/04 05:43:10;;;;;;;21.20;16.73;;;;;;;30.57;56.93;94555.53;5077188;28;20836;-75
2023/08/04 05:45:38;;;;;;;21.30;16.53;;;;;;;31.00;55.91;94551.69;5045456;28;20425;-75
2023/08/04 05:48:05;;;;;;;18.63;16.83;;;;;;;31.38;54.29;94557.81;5043219;28;20441;-74
2023/08/04 05:50:32;;;;;;;16.23;14.60;;;;;;;31.70;53.69;94552.16;5075345;28;20480;-74
2023/08/04 05:52:59;;;;;;;17.87;16.17;;;;;;;32.10;52.82;94556.03;5075157;28;20444;-75
2023/08/04 05:55:25;;;;;;;23.17;15.90;;;;;;;32.48;52.77;94558.16;5075227;28;20456;-75
2023/08/04 05:57:54;;;;;;;18.63;15.90;;;;;;;32.71;50.46;94556.75;5075263;28;20445;-74
2023/08/04 06:00:21;;;;;;;20.70;14.57;;;;;;;32.83;50.83;94559.19;5075404;28;20490;-74
2023/08/04 06:02:47;;;;;;;20.73;16.40;;;;;;;32.90;51.34;94554.25;5040107;28;20433;-75
2023/08/04 06:05:14;;;;;;;19.77;15.67;;;;;;;32.92;50.38;94557.53;5072260;28;20456;-74
2023/08/04 06:07:42;;;;;;;17.43;15.40;;;;;;;32.81;49.88;94558.66;5056138;28;20446;-75
2023/08/04 06:10:09;;;;;;;18.60;16.60;;;;;;;32.29;50.76;94554.38;5054644;28;20948;-74
2023/08/04 06:12:37;;;;;;;16.17;13.93;;;;;;;32.53;49.76;94555.44;5070599;28;20924;-75
2023/08/04 06:15:06;;;;;;;17.40;15.60;;;;;;;32.85;50.04;94557.00;5067779;28;20442;-74
2023/08/04 06:17:33;;;;;;;15.47;13.97;;;;;;;32.92;50.65;94557.53;5070224;28;20480;-74
2023/08/04 06:20:00;;;;;;;17.33;13.97;;;;;;;33.30;49.12;94560.63;5068084;28;20568;-75
2023/08/04 06:22:27;;;;;;;16.43;14.73;;;;;;;33.57;48.31;94563.78;5063295;28;20449;-74
2023/08/04 06:24:54;;;;;;;17.23;15.40;;;;;;;33.83;47.64;94559.81;5055235;28;20457;-74
2023/08/04 06:27:21;;;;;;;16.30;14.57;;;;;;;34.03;46.42;94555.31;5058405;28;20453;-74
2023/08/04 06:29:48;;;;;;;15.97;14.03;;;;;;;34.33;46.28;94554.22;5053773;28;20456;-74
2023/08/04 06:32:16;;;;;;;16.90;15.23;;;;;;;34.56;46.00;94558.13;5072015;28;20552;-75
2023/08/04 06:34:43;;;;;;;13.93;12.20;;;;;;;34.55;44.90;94557.31;5074840;28;20437;-74
2023/08/04 06:37:10;;;;;;;15.50;13.87;;;;;;;34.58;44.80;94564.09;5074495;28;20433;-75
2023/08/04 06:39:36;;;;;;;15.43;14.00;;;;;;;34.56;44.30;94558.94;5073867;28;20484;-74
2023/08/04 06:42:04;;;;;;;17.17;14.93;;;;;;;34.65;43.94;94554.47;5073600;28;20444;-75
2023/08/04 06:44:30;;;;;;;16.07;14.13;;;;;;;34.29;45.22;94559.44;5073782;28;20968;-74
2023/08/04 06:46:57;;;;;;;17.63;15.67;;;;;;;34.37;45.30;94556.13;5073664;28;20631;-75
2023/08/04 06:49:25;;;;;;;13.80;12.40;;;;;;;33.72;46.92;94550.06;5073659;28;20473;-74
2023/08/04 06:51:52;;;;;;;19.93;14.97;;;;;;;33.74;47.26;94553.31;5073871;28;20823;-74
2023/08/04 06:54:19;;;;;;;15.50;14.10;;;;;;;33.80;47.20;94544.00;5073593;28;20449;-74
2023/08/04 06:56:46;;;;;;;14.00;12.63;;;;;;;33.64;46.81;94547.94;5073411;28;20437;-75
2023/08/04 06:59:13;;;;;;;17.43;14.30;;;;;;;33.92;47.17;94538.25;5073316;28;20446;-75
2023/08/04 07:01:40;;;;;;;17.13;14.33;;;;;;;33.56;46.04;94540.38;5073273;28;20437;-75
2023/08/04 07:04:06;;;;;;;15.30;13.70;;;;;;;33.99;46.82;94532.47;5073700;28;20451;-74
2023/08/04 07:06:35;;;;;;;14.87;13.47;;;;;;;34.35;44.96;94536.53;5073340;28;20453;-75
2023/08/04 07:09:02;;;;;;;18.73;13.83;;;;;;;34.49;43.55;94536.66;5073185;28;20440;-75
2023/08/04 07:11:29;;;;;;;16.03;14.00;;;;;;;34.14;44.33;94540.53;5073433;28;20453;-74
2023/08/04 07:13:56;;;;;;;15.43;12.87;;;;;;;34.38;44.61;94530.50;5072927;28;20452;-74
2023/08/04 07:16:23;;;;;;;12.73;11.50;;;;;;;34.61;42.70;94533.53;5021600;28;20813;-75
2023/08/04 07:18:49;;;;;;;13.50;12.27;;;;;;;34.83;42.89;94533.03;5073208;28;20433;-75
2023/08/04 07:21:18;;;;;;;13.13;12.03;;;;;;;34.68;42.39;94525.81;5072978;28;20489;-75
2023/08/04 07:23:46;;;;;;;13.50;12.10;;;;;;;34.75;42.67;94529.03;5072990;28;20441;-75
2023/08/04 07:26:13;;;;;;;10.87;10.07;;;;;;;34.74;42.27;94530.94;5072650;28;20448;-74
2023/08/04 07:28:40;;;;;;;13.63;12.10;;;;;;;34.87;41.32;94526.72;5072756;28;20444;-75
2023/08/04 07:31:07;;;;;;;12.00;10.60;;;;;;;34.76;41.09;94526.00;5037421;28;20448;-75
2023/08/04 07:33:34;;;;;;;15.00;12.00;;;;;;;34.61;41.13;94534.34;5072966;28;20445;-75
2023/08/04 07:36:01;;;;;;;12.30;11.10;;;;;;;34.50;41.38;94530.13;5021182;28;20441;-74
2023/08/04 07:38:29;;;;;;;11.70;10.60;;;;;;;34.09;42.42;94529.66;5072797;28;20460;-75
2023/08/04 07:40:58;;;;;;;12.20;11.20;;;;;;;34.25;42.15;94531.16;5020424;28;20500;-75
2023/08/04 07:43:25;;;;;;;13.20;11.77;;;;;;;34.72;42.72;94537.78;5072279;28;20444;-74
2023/08/04 07:45:54;;;;;;;12.33;11.20;;;;;;;34.79;41.26;94524.63;5021043;28;20449;-75
2023/08/04 07:48:21;;;;;;;11.17;10.03;;;;;;;34.94;41.03;94519.00;5072616;28;20540;-75
2023/08/04 07:50:50;;;;;;;11.97;11.00;;;;;;;34.92;41.56;94529.38;5035240;28;20971;-74
2023/08/04 07:53:16;;;;;;;12.80;11.70;;;;;;;35.23;40.78;94518.09;5072276;28;20448;-75
2023/08/04 07:55:54;;;;;;;11.47;10.20;;;;;;;35.36;39.98;94517.41;5072676;28;20859;-75
2023/08/04 07:58:22;;;;;;;10.90;9.87;;;;;;;35.38;38.89;94520.66;5072282;28;20436;-75
2023/08/04 08:00:49;;;;;;;10.73;9.77;;;;;;;35.45;38.91;94515.63;5072002;28;20819;-75
2023/08/04 08:03:16;;;;;;;16.10;11.60;;;;;;;35.26;39.16;94518.31;5072434;28;20445;-74
2023/08/04 08:05:43;;;;;;;12.57;11.27;;;;;;;35.04;38.97;94521.63;5072396;28;20816;-74
2023/08/04 08:08:10;;;;;;;11.60;10.50;;;;;;;34.92;39.63;94523.13;5072247;28;20817;-74
2023/08/04 08:10:37;;;;;;;11.10;10.00;;;;;;;35.19;40.46;94517.06;5072026;28;20445;-75
2023/08/04 08:13:04;;;;;;;10.97;9.93;;;;;;;35.33;38.41;94515.25;5053213;28;20947;-75
2023/08/04 08:15:33;;;;;;;11.27;10.27;;;;;;;35.51;37.82;94519.09;5072276;28;20892;-75
2023/08/04 08:18:00;;;;;;;12.30;10.30;;;;;;;35.66;37.97;94518.88;5072212;28;20447;-74
2023/08/04 08:20:27;;;;;;;10.73;9.93;;;;;;;35.84;38.97;94506.31;5071786;28;20594;-75
2023/08/04 08:22:54;;;;;;;11.03;9.93;;;;;;;35.59;37.73;94515.72;5071765;28;20441;-74
2023/08/04 08:25:21;;;;;;;10.87;9.77;;;;;;;35.32;38.21;94499.97;5071739;28;20924;-75
2023/08/04 08:27:48;;;;;;;12.10;10.87;;;;;;;35.56;38.94;94506.19;5071791;28;20437;-75
2023/08/04 08:30:14;;;;;;;11.60;10.60;;;;;;;35.77;38.33;94511.34;5072064;28;20448;-75
2023/08/04 08:32:44;;;;;;;10.93;10.07;;;;;;;35.75;38.57;94508.09;5071912;28;20448;-75
2023/08/04 08:35:11;;;;;;;13.23;10.13;;;;;;;35.91;38.71;94501.31;5071763;28;20445;-75
2023/08/04 08:37:37;;;;;;;10.53;9.63;;;;;;;36.11;38.60;94509.16;5071407;28;20809;-75
2023/08/04 08:40:05;;;;;;;11.77;10.73;;;;;;;36.16;38.97;94503.63;5071863;28;20488;-74
2023/08/04 08:42:33;;;;;;;12.50;11.30;;;;;;;36.32;38.19;94506.91;5071691;28;20445;-75
2023/08/04 08:45:00;;;;;;;12.40;11.17;;;;;;;36.19;38.34;94502.22;5071756;28;20486;-75
2023/08/04 08:47:34;;;;;;;14.43;10.83;;;;;;;36.42;38.02;94500.44;5071597;28;20445;-74
2023/08/04 08:50:03;;;;;;;12.43;11.43;;;;;;;36.55;37.81;94505.13;5071690;28;20570;-74
2023/08/04 08:52:32;;;;;;;11.67;10.57;;;;;;;36.70;38.51;94495.81;5071704;28;20490;-75
2023/08/04 08:55:00;;;;;;;14.83;11.20;;;;;;;36.81;37.10;94491.81;5071905;28;20438;-74
2023/08/04 08:57:28;;;;;;;10.80;9.90;;;;;;;36.91;37.74;94491.59;5071593;28;20441;-74
2023/08/04 08:59:58;;;;;;;11.97;11.07;;;;;;;37.04;36.84;94485.31;5071449;28;20441;-74
2023/08/04 09:02:25;;;;;;;12.00;10.80;;;;;;;37.11;36.79;94496.66;5071536;28;20834;-74
2023/08/04 09:04:52;;;;;;;12.37;11.17;;;;;;;37.17;36.92;94481.72;5071729;28;20942;-74
2023/08/04 09:07:22;;;;;;;11.90;10.90;;;;;;;37.22;36.61;94480.81;5071734;28;20440;-75
2023/08/04 09:09:49;;;;;;;11.87;10.47;;;;;;;37.26;36.91;94484.56;5071474;28;20984;-75
2023/08/04 09:12:17;;;;;;;18.00;11.60;;;;;;;36.43;36.86;94470.09;5071818;28;20460;-75
2023/08/04 09:14:51;;;;;;;17.20;11.27;;;;;;;36.27;37.76;94480.47;5071877;28;21022;-75
2023/08/04 09:17:30;;;;;;;12.87;11.73;;;;;;;36.39;37.35;94476.44;5071339;28;21011;-74
2023/08/04 09:19:56;;;;;;;11.53;10.33;;;;;;;36.47;38.17;94481.22;5071466;28;20476;-75
2023/08/04 09:22:25;;;;;;;13.30;11.03;;;;;;;36.58;39.27;94466.25;5071544;28;20441;-75
2023/08/04 09:25:03;;;;;;;10.63;9.83;;;;;;;36.70;38.25;94472.00;5071477;28;20450;-75
2023/08/04 09:27:34;;;;;;;11.23;10.33;;;;;;;36.82;37.65;94466.88;5071417;28;20522;-75
2023/08/04 09:30:03;;;;;;;12.50;11.40;;;;;;;36.95;38.45;94467.16;5071623;28;20451;-74
2023/08/04 09:32:30;;;;;;;13.00;10.80;;;;;;;36.94;37.32;94465.53;5035958;28;20441;-75
2023/08/04 09:35:04;;;;;;;11.17;10.27;;;;;;;37.01;36.54;94460.47;5071166;28;20441;-75
2023/08/04 09:37:34;;;;;;;11.33;10.20;;;;;;;37.03;36.71;94461.81;5071603;28;20447;-74
2023/08/04 09:40:03;;;;;;;11.97;10.97;;;;;;;37.02;36.39;94459.38;5070968;28;20445;-74
2023/08/04 09:42:29;;;;;;;10.87;9.87;;;;;;;36.20;34.96;94457.38;5073169;28;20436;-76
2023/08/04 09:44:57;;;;;;;10.87;9.80;;;;;;;35.48;37.07;94457.72;5075966;28;20448;-75
2023/08/04 09:47:25;;;;;;;12.00;10.80;;;;;;;35.31;38.44;94449.22;5076423;28;20452;-75
2023/08/04 09:49:52;;;;;;;12.10;11.03;;;;;;;35.43;39.19;94449.63;5071783;28;20525;-75
2023/08/04 09:52:24;;;;;;;12.17;11.17;;;;;;;35.33;39.24;94452.47;5072216;28;20834;-75
2023/08/04 09:54:54;;;;;;;11.00;10.10;;;;;;;35.25;38.79;94445.75;5057918;28;20462;-74
2023/08/04 09:57:22;;;;;;;11.07;10.20;;;;;;;35.35;38.17;94451.09;5057370;28;20912;-74
2023/08/04 09:59:49;;;;;;;12.20;11.00;;;;;;;35.28;37.98;94445.19;5071849;28;20441;-74
2023/08/04 10:02:18;;;;;;;12.23;11.17;;;;;;;35.34;38.73;94443.22;5071322;28;20512;-74
2023/08/04 10:04:50;;;;;;;12.03;10.77;;;;;;;35.48;38.50;94437.81;5062374;28;20986;-74
2023/08/04 10:07:18;;;;;;;12.70;11.00;;;;;;;35.65;37.74;94438.09;5055020;28;20445;-75
2023/08/04 10:09:47;;;;;;;11.87;10.97;;;;;;;35.86;38.21;94444.06;5056913;28;20458;-74
2023/08/04 10:12:17;;;;;;;12.40;11.20;;;;;;;35.94;37.07;94443.34;5054978;28;20856;-74
2023/08/04 10:14:44;;;;;;;12.17;11.07;;;;;;;35.59;37.76;94439.28;5069536;28;20461;-74
2023/08/04 10:17:12;;;;;;;13.00;11.80;;;;;;;35.42;37.23;94433.53;5066344;28;20472;-74
2023/08/04 10:19:38;;;;;;;11.30;10.30;;;;;;;35.45;37.92;94438.41;5069740;28;20437;-79
2023/08/04 10:22:08;;;;;;;11.37;10.30;;;;;;;35.29;37.23;94433.16;5035691;28;20489;-75
2023/08/04 10:24:37;;;;;;;11.83;10.37;;;;;;;35.48;37.85;94427.69;5054085;28;20442;-75
2023/08/04 10:27:15;;;;;;;10.83;9.83;;;;;;;35.25;38.14;94431.28;5054171;28;20524;-75
2023/08/04 10:29:42;;;;;;;11.67;10.57;;;;;;;35.46;38.06;94429.91;5003559;28;20453;-75
2023/08/04 10:32:10;;;;;;;12.57;11.27;;;;;;;35.54;37.89;94431.16;5054275;28;20446;-75
2023/08/04 10:34:41;;;;;;;13.43;12.23;;;;;;;35.62;37.36;94433.22;5054104;28;20458;-75
2023/08/04 10:37:14;;;;;;;13.03;11.73;;;;;;;35.76;37.19;94427.78;5053957;28;20453;-75
2023/08/04 10:39:42;;;;;;;13.17;11.40;;;;;;;35.72;37.86;94433.03;5054149;28;20450;-76
2023/08/04 10:42:27;;;;;;;12.97;11.60;;;;;;;35.78;38.23;94428.31;5054146;28;20489;-76
2023/08/04 10:44:55;;;;;;;11.67;10.77;;;;;;;35.88;37.12;94425.44;5054445;28;20464;-75
2023/08/04 10:47:33;;;;;;;13.20;12.07;;;;;;;35.26;38.11;94414.63;5053942;28;20438;-75
2023/08/04 10:50:01;;;;;;;13.83;12.40;;;;;;;34.90;38.85;94413.53;5053744;28;20506;-75
2023/08/04 10:52:28;;;;;;;13.93;12.30;;;;;;;35.15;39.23;94417.81;5053793;28;20449;-75
2023/08/04 10:54:55;;;;;;;12.77;11.57;;;;;;;35.25;38.66;94414.91;5053717;28;20438;-75
2023/08/04 10:57:27;;;;;;;12.53;11.23;;;;;;;35.34;38.38;94415.94;5054104;28;20767;-76
2023/08/04 10:59:54;;;;;;;13.20;12.10;;;;;;;35.50;37.62;94409.09;5053894;28;20450;-76
2023/08/04 11:02:22;;;;;;;12.77;11.63;;;;;;;35.66;37.96;94409.66;5053763;28;20482;-77
2023/08/04 11:04:50;;;;;;;8.93;8.03;;;;;;;35.45;34.62;94403.72;5053774;28;20446;-76
2023/08/04 11:07:17;;;;;;;8.13;7.57;;;;;;;34.90;33.71;94405.34;5002857;28;20965;-75
2023/08/04 11:09:46;;;;;;;9.40;8.60;;;;;;;34.98;35.55;94408.22;5053306;28;20441;-75
2023/08/04 11:12:13;;;;;;;10.70;9.53;;;;;;;34.95;34.48;94400.63;5053865;28;20967;-79
2023/08/04 11:14:42;;;;;;;11.13;10.23;;;;;;;35.23;36.43;94393.38;5053797;28;20448;-77
2023/08/04 11:17:12;;;;;;;10.40;8.80;;;;;;;35.30;34.03;94395.78;5053365;28;20932;-76
2023/08/04 11:19:39;;;;;;;13.70;8.40;;;;;;;35.37;35.04;94388.03;5053290;28;20430;-77